Map

Track Data

SID SEASON NUMBER BASIN SUBBASIN NAME ISO_TIME NATURE LAT LON WMO_WIND WMO_PRES WMO_AGENCY TRACK_TYPE DIST2LAND LANDFALL IFLAG USA_AGENCY USA_ATCF_ID USA_LAT USA_LON USA_RECORD USA_STATUS USA_WIND USA_PRES USA_SSHS USA_R34_NE USA_R34_SE USA_R34_SW USA_R34_NW USA_R50_NE USA_R50_SE USA_R50_SW USA_R50_NW USA_R64_NE USA_R64_SE USA_R64_SW USA_R64_NW USA_POCI USA_ROCI USA_RMW USA_EYE TOKYO_LAT TOKYO_LON TOKYO_GRADE TOKYO_WIND TOKYO_PRES TOKYO_R50_DIR TOKYO_R50_LONG TOKYO_R50_SHORT TOKYO_R30_DIR TOKYO_R30_LONG TOKYO_R30_SHORT TOKYO_LAND CMA_LAT CMA_LON CMA_CAT CMA_WIND CMA_PRES HKO_LAT HKO_LON HKO_CAT HKO_WIND HKO_PRES NEWDELHI_LAT NEWDELHI_LON NEWDELHI_GRADE NEWDELHI_WIND NEWDELHI_PRES NEWDELHI_CI NEWDELHI_DP NEWDELHI_POCI REUNION_LAT REUNION_LON REUNION_TYPE REUNION_WIND REUNION_PRES REUNION_TNUM REUNION_CI REUNION_RMW REUNION_R34_NE REUNION_R34_SE REUNION_R34_SW REUNION_R34_NW REUNION_R50_NE REUNION_R50_SE REUNION_R50_SW REUNION_R50_NW REUNION_R64_NE REUNION_R64_SE REUNION_R64_SW REUNION_R64_NW BOM_LAT BOM_LON BOM_TYPE BOM_WIND BOM_PRES BOM_TNUM BOM_CI BOM_RMW BOM_R34_NE BOM_R34_SE BOM_R34_SW BOM_R34_NW BOM_R50_NE BOM_R50_SE BOM_R50_SW BOM_R50_NW BOM_R64_NE BOM_R64_SE BOM_R64_SW BOM_R64_NW BOM_ROCI BOM_POCI BOM_EYE BOM_POS_METHOD BOM_PRES_METHOD NADI_LAT NADI_LON NADI_CAT NADI_WIND NADI_PRES WELLINGTON_LAT WELLINGTON_LON WELLINGTON_WIND WELLINGTON_PRES DS824_LAT DS824_LON DS824_STAGE DS824_WIND DS824_PRES TD9636_LAT TD9636_LON TD9636_STAGE TD9636_WIND TD9636_PRES TD9635_LAT TD9635_LON TD9635_WIND TD9635_PRES TD9635_ROCI NEUMANN_LAT NEUMANN_LON NEUMANN_CLASS NEUMANN_WIND NEUMANN_PRES MLC_LAT MLC_LON MLC_CLASS MLC_WIND MLC_PRES USA_GUST BOM_GUST BOM_GUST_PER REUNION_GUST REUNION_GUST_PER USA_SEAHGT USA_SEARAD_NE USA_SEARAD_SE USA_SEARAD_SW USA_SEARAD_NW STORM_SPEED STORM_DIR
1959307N13140 1959 102 WP MM NOT_NAMED 1959-11-03 00:00:00 TS 13.2000 140.300 main 1596 1527 __O___________ -1 13.2000 140.300 0 1003 14 246
1959307N13140 1959 102 WP MM NOT_NAMED 1959-11-03 03:00:00 TS 12.9228 139.665 main 1527 1449 __P___________ -1 12.9228 139.665 0 1003 14 248
1959307N13140 1959 102 WP MM NOT_NAMED 1959-11-03 06:00:00 TS 12.7000 139.000 main 1449 1373 __O___________ -1 12.7000 139.000 0 1003 14 255
1959307N13140 1959 102 WP MM NOT_NAMED 1959-11-03 09:00:00 TS 12.5698 138.280 main 1373 1285 __P___________ -1 12.5698 138.280 0 1004 15 262
1959307N13140 1959 102 WP MM NOT_NAMED 1959-11-03 12:00:00 TS 12.5000 137.500 main 1285 1197 __O___________ -1 12.5000 137.500 0 1006 16 265
1959307N13140 1959 102 WP MM NOT_NAMED 1959-11-03 15:00:00 TS 12.4422 136.680 main 1197 1100 __P___________ -1 12.4422 136.680 0 1006 17 267
1959307N13140 1959 102 WP MM NOT_NAMED 1959-11-03 18:00:00 TS 12.4000 135.800 main 1100 1002 __O___________ -1 12.4000 135.800 0 1006 17 267
1959307N13140 1959 102 WP MM NOT_NAMED 1959-11-03 21:00:00 TS 12.3420 134.895 main 1002 905 __P___________ -1 12.3420 134.895 0 1006 19 267
1959307N13140 1959 102 WP MM NOT_NAMED 1959-11-04 00:00:00 TS 12.3000 133.900 main 894 776 __O___________ -1 12.3000 133.900 0 1006 21 269
1959307N13140 1959 102 WP MM NOT_NAMED 1959-11-04 03:00:00 TS 12.2928 132.743 main 765 659 __P___________ -1 12.2928 132.743 0 1005 23 270
1959307N13140 1959 102 WP MM NOT_NAMED 1959-11-04 06:00:00 TS 12.3000 131.600 main 648 553 __O___________ -1 12.3000 131.600 0 1005 21 269
1959307N13140 1959 102 WP MM NOT_NAMED 1959-11-04 09:00:00 TS 12.2545 130.640 main 542 459 __P___________ -1 12.2545 130.640 0 1004 18 270
1959307N13140 1959 102 WP MM NOT_NAMED 1959-11-04 12:00:00 TS 12.3000 129.800 main 459 381 __O___________ -1 12.3000 129.800 0 1004 16 280
1959307N13140 1959 102 WP MM NOT_NAMED 1959-11-04 15:00:00 TS 12.5323 128.998 main 381 314 __P___________ -1 12.5323 128.998 0 1004 16 292
1959307N13140 1959 102 WP MM NOT_NAMED 1959-11-04 18:00:00 TS 12.9000 128.300 main 314 268 __O___________ -1 12.9000 128.300 0 1004 15 303
1959307N13140 1959 102 WP MM NOT_NAMED 1959-11-04 21:00:00 TS 13.3498 127.698 main 268 257 __P___________ -1 13.3498 127.698 0 1004 14 310
1959307N13140 1959 102 WP MM NOT_NAMED 1959-11-05 00:00:00 TS 13.8000 127.200 main 257 241 __O___________ -1 13.8000 127.200 0 1004 12 310
1959307N13140 1959 102 WP MM NOT_NAMED 1959-11-05 03:00:00 TS 14.0923 126.777 main 249 222 __P___________ -1 14.0923 126.777 0 1004 10 308
1959307N13140 1959 102 WP MM NOT_NAMED 1959-11-05 06:00:00 TS 14.4000 126.400 main 222 203 __O___________ -1 14.4000 126.400 0 1004 11 318
1959307N13140 1959 102 WP MM NOT_NAMED 1959-11-05 09:00:00 TS 14.9224 126.008 main 205 203 __P___________ -1 14.9224 126.008 0 1004 13 322
1959307N13140 1959 102 WP MM NOT_NAMED 1959-11-05 12:00:00 TS 15.4000 125.600 main 210 203 __O___________ -1 15.4000 125.600 0 1004 11 312
1959307N13140 1959 102 WP MM NOT_NAMED 1959-11-05 15:00:00 TS 15.6323 125.180 main 203 195 __P___________ -1 15.6323 125.180 0 1004 9 289
1959307N13140 1959 102 WP MM NOT_NAMED 1959-11-05 18:00:00 TS 15.7000 124.700 main 195 190 __O___________ -1 15.7000 124.700 0 1004 11 275
1959307N13140 1959 102 WP MM NOT_NAMED 1959-11-05 21:00:00 TS 15.7328 124.078 main 190 154 __P___________ -1 15.7328 124.078 0 1004 12 265
1959307N13140 1959 102 WP MM NOT_NAMED 1959-11-06 00:00:00 TS 15.6000 123.500 main 154 127 __O___________ -1 15.6000 123.500 0 1004 10 242
1959307N13140 1959 102 WP MM NOT_NAMED 1959-11-06 03:00:00 TS 15.2597 123.155 main 127 67 __P___________ -1 15.2597 123.155 0 1004 10 216
1959307N13140 1959 102 WP MM NOT_NAMED 1959-11-06 06:00:00 TS 14.8000 122.900 main 67 22 __O___________ -1 14.8000 122.900 0 1004 11 210
1959307N13140 1959 102 WP MM NOT_NAMED 1959-11-06 09:00:00 TS 14.3574 122.608 main 22 0 __P___________ -1 14.3574 122.608 0 1004 11 213
1959307N13140 1959 102 WP MM NOT_NAMED 1959-11-06 12:00:00 TS 13.9000 122.300 main 0 0 __O___________ -1 13.9000 122.300 0 1005 11 214
1959307N13140 1959 102 WP MM NOT_NAMED 1959-11-06 15:00:00 TS 13.4275 121.950 main 46 10 __P___________ -1 13.4275 121.950 0 1005 11 217
1959307N13140 1959 102 WP MM NOT_NAMED 1959-11-06 18:00:00 TS 13.0000 121.600 main 10 0 __O___________ -1 13.0000 121.600 0 1005 10 219
1959307N13140 1959 102 WP MM NOT_NAMED 1959-11-06 21:00:00 TS 12.6623 121.323 main 0 0 __P___________ -1 12.6623 121.323 0 1005 8 224
1959307N13140 1959 102 WP MM NOT_NAMED 1959-11-07 00:00:00 TS 12.4000 121.000 main 0 0 __O___________ -1 12.4000 121.000 0 1005 10 237
1959307N13140 1959 102 WP MM NOT_NAMED 1959-11-07 03:00:00 TS 12.1477 120.507 main 63 63 __P___________ -1 12.1477 120.507 0 1005 11 248
1959307N13140 1959 102 WP MM NOT_NAMED 1959-11-07 06:00:00 TS 12.0000 120.000 main 89 78 __O___________ -1 12.0000 120.000 0 1005 9 261
1959307N13140 1959 102 WP MM NOT_NAMED 1959-11-07 09:00:00 TS 12.0049 119.620 main 78 78 __P___________ -1 12.0049 119.620 0 1005 7 278
1959307N13140 1959 102 WP MM NOT_NAMED 1959-11-07 12:00:00 TS 12.1000 119.300 main 92 92 __O___________ -1 12.1000 119.300 0 1006 6 287
1959307N13140 1959 102 WP MM NOT_NAMED 1959-11-07 15:00:00 TS 12.1925 118.985 main 114 114 __P___________ -1 12.1925 118.985 0 1006 6 289
1959307N13140 1959 102 WP MM NOT_NAMED 1959-11-07 18:00:00 TS 12.3000 118.700 main 141 141 __O___________ -1 12.3000 118.700 0 1007 6 292
1959307N13140 1959 102 WP MM NOT_NAMED 1959-11-07 21:00:00 TS 12.3999 118.450 main 171 171 __P___________ -1 12.3999 118.450 0 1007 5 292
1959307N13140 1959 102 WP MM NOT_NAMED 1959-11-08 00:00:00 TS 12.5000 118.200 main 195 195 __O___________ -1 12.5000 118.200 0 17 1007 6 292
1959307N13140 1959 102 WP MM NOT_NAMED 1959-11-08 03:00:00 TS 12.6150 117.908 main 226 226 __P___________ -1 12.6150 117.908 0 17 1006 6 289
1959307N13140 1959 102 WP MM NOT_NAMED 1959-11-08 06:00:00 TS 12.7000 117.600 main 258 258 __O___________ -1 12.7000 117.600 0 17 1005 6 279
1959307N13140 1959 102 WP MM NOT_NAMED 1959-11-08 09:00:00 TS 12.7150 117.285 main 283 283 __P___________ -1 12.7150 117.285 0 17 1005 6 270
1959307N13140 1959 102 WP MM NOT_NAMED 1959-11-08 12:00:00 TS 12.7000 117.000 main 310 310 __O___________ -1 12.7000 117.000 0 17 1005 5 268
1959307N13140 1959 102 WP MM NOT_NAMED 1959-11-08 15:00:00 TS 12.6999 116.785 main 329 329 __P___________ -1 12.6999 116.785 0 20 1005 4 270
1959307N13140 1959 102 WP MM NOT_NAMED 1959-11-08 18:00:00 TS 12.7000 116.600 main 348 348 __O___________ -1 12.7000 116.600 1 23 1005 4 271
1959307N13140 1959 102 WP MM NOT_NAMED 1959-11-08 21:00:00 TS 12.7075 116.400 main 367 367 __P___________ -1 12.7075 116.400 1 23 1005 4 270
1959307N13140 1959 102 WP MM NOT_NAMED 1959-11-09 00:00:00 TS 12.7000 116.200 main 386 386 __O___________ -1 12.7000 116.200 1 23 1005 4 266
1959307N13140 1959 102 WP MM NOT_NAMED 1959-11-09 03:00:00 TS 12.6800 115.985 main 406 406 __P___________ -1 12.6800 115.985 1 26 1004 4 256
1959307N13140 1959 102 WP MM NOT_NAMED 1959-11-09 06:00:00 TS 12.6000 115.800 main 422 422 __O___________ -1 12.6000 115.800 1 29 1003 4 230
1959307N13140 1959 102 WP MM NOT_NAMED 1959-11-09 09:00:00 TS 12.4225 115.670 main 424 413 __P___________ -1 12.4225 115.670 1 29 1003 4 206
1959307N13140 1959 102 WP MM NOT_NAMED 1959-11-09 12:00:00 TS 12.2000 115.600 main 413 395 __O___________ -1 12.2000 115.600 1 29 1003 5 192
1959307N13140 1959 102 WP MM NOT_NAMED 1959-11-09 15:00:00 TS 11.9850 115.570 main 395 377 __P___________ -1 11.9850 115.570 1 29 1003 4 0
1959307N13140 1959 102 WP MM NOT_NAMED 1959-11-09 18:00:00 TS 11.8000 115.600 main 377 362 __O___________ -1 11.8000 115.600 1 29 1003 3 165
1959307N13140 1959 102 WP MM NOT_NAMED 1959-11-09 21:00:00 TS 11.6700 115.663 main 362 346 __P___________ -1 11.6700 115.663 1 29 1002 3 135
1959307N13140 1959 102 WP MM NOT_NAMED 1959-11-10 00:00:00 TS 11.6000 115.800 main 346 333 __O___________ -1 11.6000 115.800 1 29 1002 4 104
1959307N13140 1959 102 WP MM NOT_NAMED 1959-11-10 03:00:00 TS 11.5850 116.020 main 333 314 __P___________ -1 11.5850 116.020 1 29 1001 5 90
1959307N13140 1959 102 WP MM NOT_NAMED 1959-11-10 06:00:00 TS 11.6000 116.300 main 314 293 __O___________ -1 11.6000 116.300 1 29 1000 6 88
1959307N13140 1959 102 WP MM NOT_NAMED 1959-11-10 09:00:00 TS 11.6000 116.600 main 293 267 __P___________ -1 11.6000 116.600 1 33 1000 6 90
1959307N13140 1959 102 WP MM NOT_NAMED 1959-11-10 12:00:00 TS 11.6000 116.900 main 267 250 __O___________ -1 11.6000 116.900 2 38 1000 5 90
1959307N13140 1959 102 WP MM NOT_NAMED 1959-11-10 15:00:00 TS 11.5999 117.150 main 242 221 __P___________ -1 11.5999 117.150 2 38 1000 5 90
1959307N13140 1959 102 WP MM NOT_NAMED 1959-11-10 18:00:00 TS 11.6000 117.400 main 221 190 __O___________ -1 11.6000 117.400 2 38 1000 5 91
1959307N13140 1959 102 WP MM NOT_NAMED 1959-11-10 21:00:00 TS 11.5924 117.678 main 190 159 __P___________ -1 11.5924 117.678 2 38 1000 6 90
1959307N13140 1959 102 WP MM NOT_NAMED 1959-11-11 00:00:00 TS 11.6000 118.000 main 159 117 __O___________ -1 11.6000 118.000 2 38 1000 7 87
1959307N13140 1959 102 WP MM NOT_NAMED 1959-11-11 03:00:00 TS 11.6275 118.385 main 117 86 __P___________ -1 11.6275 118.385 2 38 1000 8 83
1959307N13140 1959 102 WP MM NOT_NAMED 1959-11-11 06:00:00 TS 11.7000 118.800 main 86 62 __O___________ -1 11.7000 118.800 2 38 1000 8 80
1959307N13140 1959 102 WP MM NOT_NAMED 1959-11-11 09:00:00 TS 11.7750 119.223 main 64 57 __P___________ -1 11.7750 119.223 2 38 1000 8 69
1959307N13140 1959 102 WP MM NOT_NAMED 1959-11-11 12:00:00 TS 12.0000 119.600 main 78 78 __O___________ -1 12.0000 119.600 2 38 1000 10 44
1959307N13140 1959 102 WP MM NOT_NAMED 1959-11-11 15:00:00 TS 12.4975 119.925 main 100 39 __P___________ -1 12.4975 119.925 2 38 1000 12 24
1959307N13140 1959 102 WP MM NOT_NAMED 1959-11-11 18:00:00 TS 13.1000 120.100 main 39 21 __O___________ -1 13.1000 120.100 2 38 1000 12 9
1959307N13140 1959 102 WP MM NOT_NAMED 1959-11-11 21:00:00 TS 13.6747 120.120 main 39 39 __P___________ -1 13.6747 120.120 2 33 1000 10 349
1959307N13140 1959 102 WP MM NOT_NAMED 1959-11-12 00:00:00 TS 14.1000 119.900 main 70 70 __O___________ -1 14.1000 119.900 1 29 1000 9 305
1959307N13140 1959 102 WP MM NOT_NAMED 1959-11-12 03:00:00 TS 14.1880 119.372 main 100 100 __P___________ -1 14.1880 119.372 1 29 1000 11 275
1959307N13140 1959 102 WP MM NOT_NAMED 1959-11-12 06:00:00 TS 14.2000 118.800 main 155 155 __O___________ -1 14.2000 118.800 1 29 1000 9 285
1959307N13140 1959 102 WP MM NOT_NAMED 1959-11-12 09:00:00 TS 14.4198 118.460 main 177 177 __P___________ -1 14.4198 118.460 1 29 1000 7 316
1959307N13140 1959 102 WP MM NOT_NAMED 1959-11-12 12:00:00 TS 14.7000 118.300 main 188 180 __O___________ -1 14.7000 118.300 1 29 1000 6 342
1959307N13140 1959 102 WP MM NOT_NAMED 1959-11-12 15:00:00 TS 14.9499 118.282 main 180 162 __P___________ -1 14.9499 118.282 1 29 1000 5 11
1959307N13140 1959 102 WP MM NOT_NAMED 1959-11-12 18:00:00 TS 15.2000 118.400 main 162 135 __O___________ -1 15.2000 118.400 1 29 1000 6 31
1959307N13140 1959 102 WP MM NOT_NAMED 1959-11-12 21:00:00 TS 15.4576 118.592 main 130 101 __P___________ -1 15.4576 118.592 1 33 1000 6 38
1959307N13140 1959 102 WP MM NOT_NAMED 1959-11-13 00:00:00 TS 15.7000 118.800 main 101 86 __O___________ -1 15.7000 118.800 2 38 1000 6 38
1959307N13140 1959 102 WP MM NOT_NAMED 1959-11-13 03:00:00 TS 15.9075 118.952 main 75 74 __P___________ -1 15.9075 118.952 2 43 999 4 26
1959307N13140 1959 102 WP MM NOT_NAMED 1959-11-13 06:00:00 TS 16.1000 119.000 main 75 75 __O___________ -1 16.1000 119.000 3 48 998 4 0
1959307N13140 1959 102 WP MM NOT_NAMED 1959-11-13 09:00:00 TS 16.3523 118.933 main 96 96 __P___________ -1 16.3523 118.933 3 48 998 5 324
1959307N13140 1959 102 WP MM NOT_NAMED 1959-11-13 12:00:00 TS 16.5000 118.700 main 119 119 __O___________ -1 16.5000 118.700 3 48 998 6 277
1959307N13140 1959 102 WP MM NOT_NAMED 1959-11-13 15:00:00 TS 16.4327 118.280 main 156 156 __P___________ -1 16.4327 118.280 3 48 999 9 251
1959307N13140 1959 102 WP MM NOT_NAMED 1959-11-13 18:00:00 TS 16.2000 117.800 main 204 204 __O___________ -1 16.2000 117.800 3 48 1000 10 235
1959307N13140 1959 102 WP MM NOT_NAMED 1959-11-13 21:00:00 TS 15.8724 117.435 main 246 246 __P___________ -1 15.8724 117.435 3 43 1000 10 224
1959307N13140 1959 102 WP MM NOT_NAMED 1959-11-14 00:00:00 TS 15.5000 117.100 main 283 283 __O___________ -1 15.5000 117.100 2 38 1000 10 224
1959307N13140 1959 102 WP MM NOT_NAMED 1959-11-14 03:00:00 TS 15.1700 116.743 main 333 333 __P___________ -1 15.1700 116.743 2 38 1001 9 228
1959307N13140 1959 102 WP MM NOT_NAMED 1959-11-14 06:00:00 TS 14.9000 116.400 main 374 374 __O___________ -1 14.9000 116.400 2 38 1002 8 234
1959307N13140 1959 102 WP MM NOT_NAMED 1959-11-14 09:00:00 TS 14.7274 116.108 main 412 412 __P___________ -1 14.7274 116.108 2 38 1002 7 243
1959307N13140 1959 102 WP MM NOT_NAMED 1959-11-14 12:00:00 TS 14.6000 115.800 main 446 446 __O___________ -1 14.6000 115.800 2 38 1002 7 247
1959307N13140 1959 102 WP MM NOT_NAMED 1959-11-14 15:00:00 TS 14.4499 115.430 main 495 495 __P___________ -1 14.4499 115.430 2 38 1002 8 249
1959307N13140 1959 102 WP MM NOT_NAMED 1959-11-14 18:00:00 TS 14.3000 115.000 main 539 539 __O___________ -1 14.3000 115.000 2 38 1002 10 252
1959307N13140 1959 102 WP MM NOT_NAMED 1959-11-14 21:00:00 TS 14.1501 114.493 main 560 502 __P___________ -1 14.1501 114.493 2 33 1002 10 253
1959307N13140 1959 102 WP MM NOT_NAMED 1959-11-15 00:00:00 TS 14.0000 114.000 main 502 457 __O___________ -1 14.0000 114.000 1 29 1003 9 250
1959307N13140 1959 102 WP MM NOT_NAMED 1959-11-15 03:00:00 TS 13.8498 113.628 main 455 421 __P___________ -1 13.8498 113.628 1 29 1003 7 246
1959307N13140 1959 102 WP MM NOT_NAMED 1959-11-15 06:00:00 TS 13.7000 113.300 main 421 387 __O___________ -1 13.7000 113.300 1 29 1004 7 245
1959307N13140 1959 102 WP MM NOT_NAMED 1959-11-15 09:00:00 TS 13.5425 112.943 main 374 340 __P___________ -1 13.5425 112.943 1 29 1004 7 246
1959307N13140 1959 102 WP MM NOT_NAMED 1959-11-15 12:00:00 TS 13.4000 112.600 main 340 306 __O___________ -1 13.4000 112.600 1 29 1004 7 248
1959307N13140 1959 102 WP MM NOT_NAMED 1959-11-15 15:00:00 TS 13.2924 112.300 main 306 273 __P___________ -1 13.2924 112.300 1 26 1004 6 251
1959307N13140 1959 102 WP MM NOT_NAMED 1959-11-15 18:00:00 TS 13.2000 112.000 main 273 239 __O___________ -1 13.2000 112.000 1 23 1004 7 253
1959307N13140 1959 102 WP MM NOT_NAMED 1959-11-15 21:00:00 TS 13.1026 111.662 main 239 195 __P___________ -1 13.1026 111.662 1 23 1005 7 254
1959307N13140 1959 102 WP MM NOT_NAMED 1959-11-16 00:00:00 TS 13.0000 111.300 main 195 __O___________ -1 13.0000 111.300 1 23 1006 7 254

Digital Typhoon Data and Search

About IBTrACS Database

This database is a web-friendly format of International Best Track Archive for Climate Stewardship (IBTrACS), a global best track data archive curated by NOAA dating back to 1842.

Updated: 2021-12-06